sensor_id;sensor_type;location;lat;lon;timestamp;P1;durP1;ratioP1;P2;durP2;ratioP2
3401;SDS011;1714;49.756;8.610;2023-04-25T03:32:30;10.85;;;8.30;;
3401;SDS011;1714;49.756;8.610;2023-04-25T03:43:06;13.02;;;9.05;;
3401;SDS011;1714;49.756;8.610;2023-04-25T03:53:43;12.63;;;8.38;;
3401;SDS011;1714;49.756;8.610;2023-04-25T04:04:39;14.60;;;8.73;;
3401;SDS011;1714;49.756;8.610;2023-04-25T04:15:15;15.60;;;9.35;;
3401;SDS011;1714;49.756;8.610;2023-04-25T04:25:53;18.55;;;9.43;;
3401;SDS011;1714;49.756;8.610;2023-04-25T04:36:35;33.80;;;11.55;;
3401;SDS011;1714;49.756;8.610;2023-04-25T04:47:10;12.70;;;8.55;;
3401;SDS011;1714;49.756;8.610;2023-04-25T04:58:08;10.98;;;8.60;;
3401;SDS011;1714;49.756;8.610;2023-04-25T05:08:57;12.70;;;8.43;;
3401;SDS011;1714;49.756;8.610;2023-04-25T05:19:44;14.95;;;9.63;;
3401;SDS011;1714;49.756;8.610;2023-04-25T05:30:46;11.13;;;7.47;;
3401;SDS011;1714;49.756;8.610;2023-04-25T05:41:24;19.77;;;10.50;;
3401;SDS011;1714;49.756;8.610;2023-04-25T05:52:05;17.30;;;9.15;;
3401;SDS011;1714;49.756;8.610;2023-04-25T06:02:51;27.73;;;14.38;;
3401;SDS011;1714;49.756;8.610;2023-04-25T06:13:27;16.92;;;7.90;;
3401;SDS011;1714;49.756;8.610;2023-04-25T06:24:04;16.38;;;7.93;;
3401;SDS011;1714;49.756;8.610;2023-04-25T06:34:40;17.40;;;7.45;;
3401;SDS011;1714;49.756;8.610;2023-04-25T06:45:16;17.88;;;6.95;;
3401;SDS011;1714;49.756;8.610;2023-04-25T06:55:52;15.95;;;7.30;;
3401;SDS011;1714;49.756;8.610;2023-04-25T07:06:30;14.60;;;6.20;;
3401;SDS011;1714;49.756;8.610;2023-04-25T07:17:07;9.65;;;5.25;;
3401;SDS011;1714;49.756;8.610;2023-04-25T07:27:43;10.70;;;5.30;;
3401;SDS011;1714;49.756;8.610;2023-04-25T07:38:23;13.73;;;6.13;;
3401;SDS011;1714;49.756;8.610;2023-04-25T07:48:59;14.68;;;6.28;;
3401;SDS011;1714;49.756;8.610;2023-04-25T07:59:35;13.30;;;5.60;;
3401;SDS011;1714;49.756;8.610;2023-04-25T08:10:12;11.95;;;4.45;;
3401;SDS011;1714;49.756;8.610;2023-04-25T08:20:49;12.75;;;4.97;;
3401;SDS011;1714;49.756;8.610;2023-04-25T08:31:25;8.25;;;4.22;;
3401;SDS011;1714;49.756;8.610;2023-04-25T08:42:06;14.95;;;4.47;;
3401;SDS011;1714;49.756;8.610;2023-04-25T08:52:46;14.30;;;4.22;;
3401;SDS011;1714;49.756;8.610;2023-04-25T09:03:23;15.77;;;4.28;;
3401;SDS011;1714;49.756;8.610;2023-04-25T09:14:12;7.65;;;2.72;;
3401;SDS011;1714;49.756;8.610;2023-04-25T09:25:13;8.75;;;3.40;;
3401;SDS011;1714;49.756;8.610;2023-04-25T09:35:50;6.93;;;2.97;;
3401;SDS011;1714;49.756;8.610;2023-04-25T09:46:38;8.43;;;2.85;;
3401;SDS011;1714;49.756;8.610;2023-04-25T09:57:24;4.10;;;2.05;;
3401;SDS011;1714;49.756;8.610;2023-04-25T10:08:03;8.90;;;2.70;;
3401;SDS011;1714;49.756;8.610;2023-04-25T10:18:40;5.55;;;2.50;;
3401;SDS011;1714;49.756;8.610;2023-04-25T10:29:22;7.55;;;1.70;;
3401;SDS011;1714;49.756;8.610;2023-04-25T10:39:59;6.10;;;2.28;;
3401;SDS011;1714;49.756;8.610;2023-04-25T10:50:44;7.40;;;3.13;;
3401;SDS011;1714;49.756;8.610;2023-04-25T11:01:20;5.20;;;3.00;;
3401;SDS011;1714;49.756;8.610;2023-04-25T11:11:59;7.70;;;4.57;;
3401;SDS011;1714;49.756;8.610;2023-04-25T11:22:35;7.78;;;3.47;;
3401;SDS011;1714;49.756;8.610;2023-04-25T11:33:11;9.50;;;4.38;;
3401;SDS011;1714;49.756;8.610;2023-04-25T11:43:46;9.35;;;4.15;;
3401;SDS011;1714;49.756;8.610;2023-04-25T11:54:23;6.88;;;3.28;;
3401;SDS011;1714;49.756;8.610;2023-04-25T12:04:59;9.48;;;3.97;;
3401;SDS011;1714;49.756;8.610;2023-04-25T12:15:55;7.18;;;3.53;;
3401;SDS011;1714;49.756;8.610;2023-04-25T12:26:53;9.82;;;4.05;;
3401;SDS011;1714;49.756;8.610;2023-04-25T12:37:39;7.55;;;4.50;;
3401;SDS011;1714;49.756;8.610;2023-04-25T12:48:15;9.77;;;4.22;;
3401;SDS011;1714;49.756;8.610;2023-04-25T12:58:51;13.43;;;3.65;;
3401;SDS011;1714;49.756;8.610;2023-04-25T13:09:28;7.38;;;3.28;;
3401;SDS011;1714;49.756;8.610;2023-04-25T13:20:04;10.57;;;3.72;;
3401;SDS011;1714;49.756;8.610;2023-04-25T13:30:45;6.60;;;3.03;;
3401;SDS011;1714;49.756;8.610;2023-04-25T13:41:23;14.18;;;2.88;;
3401;SDS011;1714;49.756;8.610;2023-04-25T13:51:59;5.80;;;2.35;;
3401;SDS011;1714;49.756;8.610;2023-04-25T14:02:34;6.72;;;2.35;;
3401;SDS011;1714;49.756;8.610;2023-04-25T14:13:11;8.70;;;2.67;;
3401;SDS011;1714;49.756;8.610;2023-04-25T14:23:47;8.00;;;2.58;;
3401;SDS011;1714;49.756;8.610;2023-04-25T14:34:23;3.72;;;2.25;;
3401;SDS011;1714;49.756;8.610;2023-04-25T14:44:58;5.80;;;2.30;;
3401;SDS011;1714;49.756;8.610;2023-04-25T14:55:34;8.80;;;2.75;;
3401;SDS011;1714;49.756;8.610;2023-04-25T15:06:10;9.75;;;3.20;;
3401;SDS011;1714;49.756;8.610;2023-04-25T15:16:46;12.40;;;2.55;;
3401;SDS011;1714;49.756;8.610;2023-04-25T15:27:22;6.43;;;1.77;;
3401;SDS011;1714;49.756;8.610;2023-04-25T15:37:57;3.05;;;2.00;;
3401;SDS011;1714;49.756;8.610;2023-04-25T15:48:34;8.13;;;2.25;;
3401;SDS011;1714;49.756;8.610;2023-04-25T15:59:10;10.30;;;2.10;;
3401;SDS011;1714;49.756;8.610;2023-04-25T16:09:46;4.80;;;2.20;;
3401;SDS011;1714;49.756;8.610;2023-04-25T16:20:22;5.70;;;1.80;;
3401;SDS011;1714;49.756;8.610;2023-04-25T16:30:57;4.53;;;2.28;;
3401;SDS011;1714;49.756;8.610;2023-04-25T16:41:33;7.57;;;1.83;;
3401;SDS011;1714;49.756;8.610;2023-04-25T16:52:09;3.25;;;1.50;;
3401;SDS011;1714;49.756;8.610;2023-04-25T17:02:46;9.32;;;1.95;;
3401;SDS011;1714;49.756;8.610;2023-04-25T17:13:22;4.43;;;1.60;;
3401;SDS011;1714;49.756;8.610;2023-04-25T17:24:06;7.63;;;1.90;;
3401;SDS011;1714;49.756;8.610;2023-04-25T17:34:44;7.63;;;1.63;;
3401;SDS011;1714;49.756;8.610;2023-04-25T17:45:20;9.85;;;2.15;;
3401;SDS011;1714;49.756;8.610;2023-04-25T17:55:56;4.88;;;1.60;;
3401;SDS011;1714;49.756;8.610;2023-04-25T18:06:32;5.47;;;1.98;;
3401;SDS011;1714;49.756;8.610;2023-04-25T18:17:07;7.70;;;2.42;;
3401;SDS011;1714;49.756;8.610;2023-04-25T18:27:44;8.48;;;2.60;;
3401;SDS011;1714;49.756;8.610;2023-04-25T18:38:20;7.05;;;2.28;;
3401;SDS011;1714;49.756;8.610;2023-04-25T18:49:09;8.93;;;2.22;;
3401;SDS011;1714;49.756;8.610;2023-04-25T18:59:45;8.43;;;3.72;;
3401;SDS011;1714;49.756;8.610;2023-04-25T19:10:21;10.93;;;2.03;;
3401;SDS011;1714;49.756;8.610;2023-04-25T19:20:57;5.45;;;2.28;;
3401;SDS011;1714;49.756;8.610;2023-04-25T19:31:33;6.78;;;2.00;;
3401;SDS011;1714;49.756;8.610;2023-04-25T19:42:09;10.88;;;2.53;;
3401;SDS011;1714;49.756;8.610;2023-04-25T19:52:45;5.40;;;2.38;;
3401;SDS011;1714;49.756;8.610;2023-04-25T20:03:21;9.90;;;1.98;;
3401;SDS011;1714;49.756;8.610;2023-04-25T20:13:57;5.95;;;2.88;;
3401;SDS011;1714;49.756;8.610;2023-04-25T20:24:33;8.60;;;2.83;;
3401;SDS011;1714;49.756;8.610;2023-04-25T20:35:08;10.07;;;3.20;;
3401;SDS011;1714;49.756;8.610;2023-04-25T20:45:44;6.75;;;2.25;;
3401;SDS011;1714;49.756;8.610;2023-04-25T20:56:21;7.53;;;2.67;;
3401;SDS011;1714;49.756;8.610;2023-04-25T21:06:58;20.00;;;8.13;;
3401;SDS011;1714;49.756;8.610;2023-04-25T21:17:35;9.57;;;2.80;;
3401;SDS011;1714;49.756;8.610;2023-04-25T21:28:11;7.68;;;3.25;;
